Time;durP1;ratioP1;P1;durP2;ratioP2;P2;SDS_P1;SDS_P2;PMS_P1;PMS_P2;Temp;Humidity;BMP_temperature;BMP_pressure;BME280_temperature;BME280_humidity;BME280_pressure;Samples;Min_cycle;Max_cycle;Signal;HPM_P1;HPM_P2
2024/02/13 00:01:15;;;;;;;6.68;4.95;;;23.20;99.90;;;;;;5053624;28;20127;-57
2024/02/13 00:03:41;;;;;;;8.18;5.72;;;23.20;99.90;;;;;;5053796;28;20028;-58
2024/02/13 00:06:09;;;;;;;7.82;5.25;;;23.20;99.90;;;;;;5053545;28;20044;-58
2024/02/13 00:08:35;;;;;;;9.38;5.82;;;23.10;99.90;;;;;;5053558;28;20024;-58
2024/02/13 00:11:06;;;;;;;7.80;5.60;;;23.10;99.90;;;;;;5053527;28;20025;-57
2024/02/13 00:13:34;;;;;;;9.50;6.15;;;23.10;99.90;;;;;;5053568;28;20033;-57
2024/02/13 00:16:00;;;;;;;9.82;6.00;;;23.10;99.90;;;;;;5053476;28;20025;-58
2024/02/13 00:18:26;;;;;;;11.43;7.07;;;23.10;99.90;;;;;;5053703;28;20108;-58
2024/02/13 00:20:54;;;;;;;10.25;6.18;;;23.10;99.90;;;;;;5053302;28;20071;-58
2024/02/13 00:23:21;;;;;;;;;;;23.10;99.90;;;;;;5053705;28;20461;-59
2024/02/13 00:25:47;;;;;;;10.23;7.00;;;23.10;99.90;;;;;;5053163;28;19920;-59
2024/02/13 00:28:13;;;;;;;11.23;7.15;;;23.00;99.90;;;;;;5053266;28;20389;-59
2024/02/13 00:30:40;;;;;;;11.38;7.35;;;23.10;99.90;;;;;;5053089;28;20025;-60
2024/02/13 00:33:07;;;;;;;13.80;8.07;;;23.00;99.90;;;;;;5052823;28;20103;-59
2024/02/13 00:35:33;;;;;;;11.88;7.38;;;23.00;99.90;;;;;;5052960;28;20110;-59
2024/02/13 00:37:58;;;;;;;11.85;7.43;;;23.00;99.90;;;;;;5053255;28;20064;-58
2024/02/13 00:40:24;;;;;;;12.77;7.50;;;23.00;99.90;;;;;;5051616;28;20029;-59
2024/02/13 00:42:51;;;;;;;11.70;7.80;;;23.00;99.90;;;;;;5052619;28;20031;-60
2024/02/13 00:45:16;;;;;;;11.15;7.95;;;23.00;99.90;;;;;;5051349;28;20041;-60
2024/02/13 00:47:42;;;;;;;13.18;7.80;;;23.00;99.90;;;;;;5052784;28;20024;-60
2024/02/13 00:50:08;;;;;;;9.95;7.28;;;23.00;99.90;;;;;;5052630;28;20032;-60
2024/02/13 00:52:39;;;;;;;11.93;8.63;;;23.00;99.90;;;;;;5052620;28;20032;-60
2024/02/13 00:55:07;;;;;;;10.85;8.00;;;23.00;99.90;;;;;;5052551;28;20021;-60
2024/02/13 00:57:34;;;;;;;13.68;8.80;;;23.00;99.90;;;;;;5052623;28;20075;-60
2024/02/13 00:59:59;;;;;;;14.00;8.48;;;23.00;99.90;;;;;;5053354;28;20021;-60
2024/02/13 01:02:26;;;;;;;12.48;7.50;;;23.00;99.90;;;;;;5052410;28;20037;-60
2024/02/13 01:04:52;;;;;;;10.65;7.20;;;22.90;99.90;;;;;;5052388;28;20079;-59
2024/02/13 01:07:18;;;;;;;11.13;7.75;;;22.90;99.90;;;;;;5052466;28;20029;-60
2024/02/13 01:09:44;;;;;;;11.82;8.00;;;22.90;99.90;;;;;;5052355;28;20358;-60
2024/02/13 01:12:09;;;;;;;10.00;7.32;;;22.90;99.90;;;;;;5050928;28;20440;-59
2024/02/13 01:14:37;;;;;;;12.40;7.88;;;22.90;99.90;;;;;;5052233;28;20025;-59
2024/02/13 01:17:04;;;;;;;11.95;8.13;;;22.90;99.90;;;;;;5052246;28;20461;-59
2024/02/13 01:19:31;;;;;;;12.82;8.75;;;22.90;99.90;;;;;;5052545;28;20037;-59
2024/02/13 01:21:57;;;;;;;12.57;8.17;;;22.90;99.90;;;;;;5052504;28;20017;-59
2024/02/13 01:24:26;;;;;;;12.05;7.65;;;22.90;99.90;;;;;;5052367;28;20087;-60
2024/02/13 01:26:57;;;;;;;10.73;7.38;;;22.80;99.90;;;;;;5050661;28;20032;-60
2024/02/13 01:29:23;;;;;;;12.70;7.20;;;22.80;99.90;;;;;;5050869;28;20027;-60
2024/02/13 01:31:49;;;;;;;10.23;7.47;;;22.80;99.90;;;;;;5052145;28;20043;-61
2024/02/13 01:34:16;;;;;;;8.75;6.75;;;22.80;99.90;;;;;;5052172;28;20434;-59
2024/02/13 01:36:42;;;;;;;11.23;7.38;;;22.80;99.90;;;;;;5052096;28;20024;-59
2024/02/13 01:39:09;;;;;;;10.35;6.32;;;22.80;99.90;;;;;;5052096;28;20380;-61
2024/02/13 01:41:35;;;;;;;12.27;7.53;;;22.80;99.90;;;;;;5051813;28;20039;-59
2024/02/13 01:44:03;;;;;;;10.65;7.03;;;22.80;99.90;;;;;;5051856;28;20021;-60
2024/02/13 01:46:30;;;;;;;10.05;7.43;;;22.80;99.90;;;;;;5056297;28;20025;-61
2024/02/13 01:48:58;;;;;;;11.30;7.50;;;22.80;99.90;;;;;;5056118;28;20032;-61
2024/02/13 01:51:27;;;;;;;9.35;6.53;;;22.80;99.90;;;;;;5054845;28;20083;-58
2024/02/13 01:53:59;;;;;;;10.00;6.45;;;22.80;99.90;;;;;;5056097;28;20610;-58
2024/02/13 01:56:27;;;;;;;9.27;6.63;;;22.70;99.90;;;;;;5056098;28;20029;-58
2024/02/13 01:58:53;;;;;;;10.88;6.95;;;22.70;99.90;;;;;;5055874;28;20063;-58
2024/02/13 02:01:19;;;;;;;9.45;6.40;;;22.70;99.90;;;;;;5066280;23;20045;-46
2024/02/13 02:03:45;;;;;;;12.30;7.47;;;22.80;99.90;;;;;;5055807;28;20114;-46
2024/02/13 02:06:11;;;;;;;8.07;5.88;;;22.80;99.90;;;;;;5055741;28;20115;-46
2024/02/13 02:08:37;;;;;;;9.57;5.82;;;22.70;99.90;;;;;;5055871;28;20021;-46
2024/02/13 02:11:03;;;;;;;9.10;6.75;;;22.70;99.90;;;;;;5054952;28;20118;-46
2024/02/13 02:13:30;;;;;;;10.13;5.55;;;22.70;99.90;;;;;;5056015;28;20434;-46
2024/02/13 02:15:59;;;;;;;9.25;6.22;;;22.70;99.90;;;;;;5055645;28;20025;-46
2024/02/13 02:18:25;;;;;;;9.38;6.35;;;22.70;99.90;;;;;;5055654;28;20025;-46
2024/02/13 02:20:52;;;;;;;8.60;5.60;;;22.70;99.90;;;;;;5054370;28;20473;-47
2024/02/13 02:23:19;;;;;;;10.32;5.40;;;22.70;99.90;;;;;;5054314;28;20285;-47
2024/02/13 02:25:48;;;;;;;8.63;5.72;;;22.70;99.90;;;;;;5055463;28;20099;-46
2024/02/13 02:28:17;;;;;;;8.70;5.72;;;22.70;99.90;;;;;;5055549;28;20087;-46
2024/02/13 02:30:45;;;;;;;8.52;5.82;;;22.70;99.90;;;;;;5055407;28;20082;-47
2024/02/13 02:33:14;;;;;;;8.88;5.60;;;22.70;99.90;;;;;;5055921;28;20021;-46
2024/02/13 02:35:41;;;;;;;10.25;5.75;;;22.70;99.90;;;;;;5055411;28;20033;-47
2024/02/13 02:38:09;;;;;;;8.40;5.53;;;22.60;99.90;;;;;;5055286;28;20032;-47
2024/02/13 02:40:36;;;;;;;8.52;5.57;;;22.60;99.90;;;;;;5055425;28;20056;-46
2024/02/13 02:43:02;;;;;;;7.65;5.50;;;22.60;99.90;;;;;;5055290;28;20045;-46
2024/02/13 02:45:28;;;;;;;8.38;5.80;;;22.60;99.90;;;;;;5055122;28;20032;-46
2024/02/13 02:47:54;;;;;;;7.85;5.43;;;22.60;99.90;;;;;;5055046;28;20028;-46
2024/02/13 02:50:22;;;;;;;7.15;4.90;;;22.60;99.90;;;;;;5055034;28;20021;-46
2024/02/13 02:52:48;;;;;;;7.43;5.43;;;22.60;99.90;;;;;;5055068;28;20424;-46
2024/02/13 02:55:18;;;;;;;7.55;5.60;;;22.60;99.90;;;;;;5055007;28;20037;-46
2024/02/13 02:57:44;;;;;;;8.93;5.18;;;22.60;99.90;;;;;;5054926;28;20381;-46
2024/02/13 03:00:12;;;;;;;11.45;5.70;;;22.60;99.90;;;;;;5055175;28;20025;-45
2024/02/13 03:02:40;;;;;;;6.55;4.13;;;22.60;99.90;;;;;;5053335;28;20097;-46
2024/02/13 03:05:07;;;;;;;7.47;5.20;;;22.60;99.90;;;;;;5054884;28;20040;-46
2024/02/13 03:07:33;;;;;;;10.13;5.70;;;22.60;99.90;;;;;;5054922;28;20029;-47
2024/02/13 03:10:00;;;;;;;7.32;5.15;;;22.60;99.90;;;;;;5054528;28;20262;-47
2024/02/13 03:12:26;;;;;;;7.85;5.10;;;22.60;99.90;;;;;;5054531;28;20021;-47
2024/02/13 03:14:55;;;;;;;6.35;4.30;;;22.60;99.90;;;;;;5054569;28;20078;-46
2024/02/13 03:17:22;;;;;;;9.45;5.05;;;22.50;99.90;;;;;;5054442;28;20071;-46
2024/02/13 03:19:48;;;;;;;9.05;5.03;;;22.50;99.90;;;;;;5054381;28;20437;-46
2024/02/13 03:22:14;;;;;;;6.80;4.97;;;22.50;99.90;;;;;;5054547;28;20084;-46
2024/02/13 03:24:40;;;;;;;6.75;5.07;;;22.50;99.90;;;;;;5054331;28;20025;-47
2024/02/13 03:27:06;;;;;;;7.60;4.90;;;22.60;99.90;;;;;;5054532;28;20029;-47
2024/02/13 03:29:31;;;;;;;8.23;5.18;;;22.50;99.90;;;;;;5053042;28;20021;-47
2024/02/13 03:31:57;;;;;;;6.32;4.72;;;22.50;99.90;;;;;;5054338;28;20044;-47
2024/02/13 03:34:23;;;;;;;7.40;4.82;;;22.50;99.90;;;;;;5054274;28;20022;-47
2024/02/13 03:36:49;;;;;;;6.50;3.95;;;22.50;99.90;;;;;;5054251;28;20029;-47
2024/02/13 03:39:15;;;;;;;6.50;4.22;;;22.50;99.90;;;;;;5054272;28;20021;-47
2024/02/13 03:41:46;;;;;;;8.70;4.85;;;22.50;99.90;;;;;;5053894;28;20025;-48
2024/02/13 03:44:12;;;;;;;8.48;5.07;;;22.50;99.90;;;;;;5054451;28;20025;-46
2024/02/13 03:46:42;;;;;;;7.13;4.78;;;22.50;99.90;;;;;;5053951;28;20029;-47
2024/02/13 03:49:08;;;;;;;6.55;4.53;;;22.50;99.90;;;;;;5054079;28;20021;-47
2024/02/13 03:51:40;;;;;;;7.22;4.85;;;22.50;99.90;;;;;;5053966;28;20056;-47
2024/02/13 03:54:09;;;;;;;5.90;4.28;;;22.50;99.90;;;;;;5053824;28;20027;-46
2024/02/13 03:56:40;;;;;;;7.78;5.00;;;22.50;99.90;;;;;;5053831;28;20021;-46
2024/02/13 03:59:08;;;;;;;7.97;5.05;;;22.50;99.90;;;;;;5053816;28;20071;-46
2024/02/13 04:01:34;;;;;;;8.60;4.90;;;22.40;99.90;;;;;;5057012;22;20049;-61
2024/02/13 04:04:00;;;;;;;5.40;4.18;;;22.40;99.90;;;;;;5033905;28;20029;-58
2024/02/13 04:06:26;;;;;;;6.38;4.40;;;22.40;99.90;;;;;;5033764;28;20037;-59
2024/02/13 04:08:52;;;;;;;6.20;4.32;;;22.40;99.90;;;;;;5032089;28;20029;-58
2024/02/13 04:11:18;;;;;;;6.40;4.63;;;22.40;99.90;;;;;;5033895;28;20037;-59
2024/02/13 04:13:44;;;;;;;6.15;3.95;;;22.50;99.90;;;;;;5033759;28;20491;-58
2024/02/13 04:16:10;;;;;;;6.68;4.10;;;22.40;99.90;;;;;;5033775;28;20108;-59
2024/02/13 04:18:37;;;;;;;7.17;4.73;;;22.40;99.90;;;;;;5033498;28;20100;-58
2024/02/13 04:21:04;;;;;;;6.07;4.43;;;22.40;99.90;;;;;;5033461;28;20267;-58
2024/02/13 04:23:30;;;;;;;7.30;4.40;;;22.40;99.90;;;;;;5032141;28;20102;-58
2024/02/13 04:25:56;;;;;;;6.63;4.35;;;22.40;99.90;;;;;;5033436;28;20461;-58
2024/02/13 04:28:22;;;;;;;6.50;4.35;;;22.40;99.90;;;;;;5033264;28;20017;-58
2024/02/13 04:30:48;;;;;;;6.00;3.93;;;22.40;99.90;;;;;;5033283;28;20075;-58
2024/02/13 04:33:14;;;;;;;6.18;3.90;;;22.40;99.90;;;;;;5033272;28;20033;-58
2024/02/13 04:35:40;;;;;;;5.05;3.63;;;22.40;99.90;;;;;;5033332;28;20025;-59
2024/02/13 04:38:06;;;;;;;6.30;4.30;;;22.40;99.90;;;;;;5033145;28;20029;-58
2024/02/13 04:40:36;;;;;;;6.65;4.25;;;22.40;99.90;;;;;;5033120;28;20025;-58
2024/02/13 04:43:02;;;;;;;4.80;3.10;;;22.40;99.90;;;;;;5033024;28;20488;-58
2024/02/13 04:45:28;;;;;;;5.10;3.63;;;22.30;99.90;;;;;;5033041;28;20112;-58
2024/02/13 04:47:54;;;;;;;5.13;4.38;;;22.30;99.90;;;;;;5032989;28;20030;-59
2024/02/13 04:50:20;;;;;;;6.35;4.18;;;22.30;99.90;;;;;;5033005;28;20105;-59
2024/02/13 04:52:46;;;;;;;5.82;3.60;;;22.30;99.90;;;;;;5032952;28;20087;-60
2024/02/13 04:55:12;;;;;;;4.72;3.50;;;22.30;99.90;;;;;;5032916;28;20461;-61
2024/02/13 04:57:38;;;;;;;6.90;4.53;;;22.30;99.90;;;;;;5032790;28;20029;-59
2024/02/13 05:00:24;;;;;;;6.05;3.35;;;22.30;99.90;;;;;;5032828;28;20135;-58
2024/02/13 05:08:21;;;;;;;5.00;3.65;;;22.30;99.90;;;;;;5032659;28;20060;-59
2024/02/13 05:10:48;;;;;;;5.40;3.40;;;22.30;99.90;;;;;;5032616;28;20473;-59
2024/02/13 05:13:15;;;;;;;4.65;3.63;;;22.30;99.90;;;;;;5032406;28;20017;-59
2024/02/13 05:15:41;;;;;;;4.97;3.60;;;22.30;99.90;;;;;;5032549;28;20021;-60
2024/02/13 05:18:07;;;;;;;5.85;3.78;;;22.20;99.90;;;;;;5031084;28;20033;-60
2024/02/13 05:20:35;;;;;;;6.53;3.40;;;22.30;99.90;;;;;;5031817;28;20040;-59
2024/02/13 05:23:01;;;;;;;4.93;3.10;;;22.20;99.90;;;;;;5032697;28;20022;-59
2024/02/13 05:25:28;;;;;;;5.10;3.45;;;22.20;99.90;;;;;;5032518;28;20034;-59
2024/02/13 05:27:54;;;;;;;6.18;3.88;;;22.20;99.90;;;;;;5032404;28;20432;-59
2024/02/13 05:30:20;;;;;;;5.32;3.30;;;22.20;99.90;;;;;;5031104;28;20021;-59
2024/02/13 05:32:46;;;;;;;4.15;3.33;;;22.20;99.90;;;;;;5032269;28;20025;-59
2024/02/13 05:35:12;;;;;;;4.45;2.88;;;22.20;99.90;;;;;;5030985;28;20030;-59
2024/02/13 05:37:38;;;;;;;5.20;3.42;;;22.20;99.90;;;;;;5032155;28;20120;-60
2024/02/13 05:40:05;;;;;;;4.82;2.95;;;22.20;99.90;;;;;;5030964;28;20036;-60
2024/02/13 05:42:31;;;;;;;4.22;3.17;;;22.20;99.90;;;;;;5032360;28;20037;-59
2024/02/13 05:44:57;;;;;;;5.07;2.95;;;22.20;99.90;;;;;;5032039;28;20458;-59
2024/02/13 05:47:29;;;;;;;5.10;3.22;;;22.20;99.90;;;;;;5032136;28;20029;-58
2024/02/13 05:49:55;;;;;;;4.88;2.83;;;22.10;99.90;;;;;;5032119;28;20032;-58
2024/02/13 05:52:21;;;;;;;5.15;3.88;;;22.20;99.90;;;;;;5032077;28;20385;-60
2024/02/13 05:54:47;;;;;;;5.38;3.42;;;22.20;99.90;;;;;;5032139;28;20022;-58
2024/02/13 05:57:13;;;;;;;7.45;3.75;;;22.20;99.90;;;;;;5032095;28;20469;-58
2024/02/13 05:59:39;;;;;;;3.92;2.65;;;22.10;99.90;;;;;;5030903;28;20037;-57
2024/02/13 06:02:04;;;;;;;3.85;2.83;;;22.20;99.90;;;;;;5019170;28;20077;-60
2024/02/13 06:04:30;;;;;;;4.80;3.10;;;22.10;99.90;;;;;;5011724;28;20053;-58
2024/02/13 06:06:56;;;;;;;4.75;2.80;;;22.10;99.90;;;;;;5012148;28;20034;-57
2024/02/13 06:09:24;;;;;;;5.47;3.20;;;22.10;99.90;;;;;;5010816;28;20022;-60
2024/02/13 06:11:53;;;;;;;3.90;2.80;;;22.10;99.90;;;;;;5012271;28;20032;-59
2024/02/13 06:14:19;;;;;;;6.22;3.05;;;22.10;99.90;;;;;;5012142;28;20024;-59
2024/02/13 06:16:45;;;;;;;2.97;2.25;;;22.10;99.90;;;;;;5011964;28;20397;-60
2024/02/13 06:19:11;;;;;;;4.07;2.58;;;22.10;99.90;;;;;;5011538;28;20018;-60
2024/02/13 06:21:37;;;;;;;5.45;3.38;;;22.10;99.90;;;;;;5012264;28;20026;-61
2024/02/13 06:24:03;;;;;;;5.13;2.90;;;22.10;99.90;;;;;;5010895;28;20030;-60
2024/02/13 06:26:29;;;;;;;4.93;2.75;;;22.10;99.90;;;;;;5012040;28;20038;-59
2024/02/13 06:28:55;;;;;;;3.75;2.85;;;22.10;99.90;;;;;;5012146;28;20488;-60
2024/02/13 06:31:21;;;;;;;4.38;2.78;;;22.10;99.90;;;;;;5014278;28;20609;-60
2024/02/13 06:33:47;;;;;;;6.55;4.30;;;22.10;99.90;;;;;;5015670;28;20026;-60
2024/02/13 06:36:13;;;;;;;5.50;2.83;;;22.00;99.90;;;;;;5015654;28;20389;-60
2024/02/13 06:38:39;;;;;;;5.47;2.80;;;22.00;99.90;;;;;;5015508;28;20041;-60
2024/02/13 06:41:05;;;;;;;3.78;2.80;;;22.10;99.90;;;;;;5015931;28;20014;-61
2024/02/13 06:43:34;;;;;;;3.28;2.50;;;22.00;99.90;;;;;;5015587;28;20033;-59
2024/02/13 06:46:01;;;;;;;5.93;2.85;;;22.00;99.90;;;;;;5015337;28;20034;-59
2024/02/13 06:48:26;;;;;;;4.55;2.58;;;22.00;99.90;;;;;;5015287;28;20026;-59
2024/02/13 06:50:52;;;;;;;3.47;2.20;;;22.00;99.90;;;;;;5015301;28;20156;-59
2024/02/13 06:53:18;;;;;;;3.53;2.35;;;22.00;99.90;;;;;;5015371;28;20452;-58
2024/02/13 06:55:44;;;;;;;5.07;2.88;;;22.00;99.90;;;;;;5015376;28;20105;-60
2024/02/13 06:58:11;;;;;;;4.82;2.90;;;22.00;99.90;;;;;;5015257;28;20022;-59
2024/02/13 07:00:36;;;;;;;3.47;2.53;;;22.00;99.90;;;;;;5015154;28;20030;-59
2024/02/13 07:03:02;;;;;;;5.63;2.53;;;22.00;99.90;;;;;;5015378;28;20037;-59
2024/02/13 07:05:29;;;;;;;3.95;2.70;;;22.00;99.90;;;;;;5015035;28;20026;-59
2024/02/13 07:07:55;;;;;;;5.75;2.38;;;22.00;99.90;;;;;;5015115;28;20474;-60
2024/02/13 07:10:21;;;;;;;3.55;1.65;;;22.00;99.90;;;;;;5015085;28;20082;-60
2024/02/13 07:12:47;;;;;;;4.40;2.53;;;22.00;99.90;;;;;;5030237;28;20033;-57
2024/02/13 07:15:14;;;;;;;5.15;2.08;;;22.00;99.90;;;;;;5030047;28;20034;-60
2024/02/13 07:17:40;;;;;;;6.45;2.50;;;22.00;99.90;;;;;;5014831;28;20073;-58
2024/02/13 07:20:07;;;;;;;5.55;3.17;;;22.00;99.90;;;;;;5015065;28;20061;-59
2024/02/13 07:22:33;;;;;;;5.95;2.80;;;22.00;99.90;;;;;;5014925;28;20029;-59
2024/02/13 07:24:59;;;;;;;5.50;3.20;;;22.00;99.90;;;;;;5014662;28;20041;-60
2024/02/13 07:27:25;;;;;;;6.78;2.88;;;22.00;99.90;;;;;;5014669;28;20114;-59
2024/02/13 07:29:54;;;;;;;6.18;3.10;;;22.00;99.90;;;;;;5014658;28;20375;-59
2024/02/13 07:32:20;;;;;;;5.10;3.53;;;22.00;99.90;;;;;;5014670;28;20079;-58
2024/02/13 07:34:47;;;;;;;5.28;3.53;;;22.00;99.90;;;;;;5014494;28;20026;-59
2024/02/13 07:37:13;;;;;;;6.05;3.63;;;22.00;99.90;;;;;;5014462;28;20115;-59
2024/02/13 07:39:40;;;;;;;6.80;3.70;;;22.00;99.90;;;;;;5014386;28;20034;-59
2024/02/13 07:42:07;;;;;;;7.03;4.07;;;22.00;99.90;;;;;;5013785;28;20018;-57
2024/02/13 07:44:33;;;;;;;11.25;4.30;;;22.00;99.90;;;;;;5014268;28;20026;-60
2024/02/13 07:46:59;;;;;;;8.32;4.32;;;22.00;99.90;;;;;;5014384;28;20033;-59
2024/02/13 07:49:25;;;;;;;10.43;4.53;;;22.00;99.90;;;;;;5014249;28;20030;-59
2024/02/13 07:51:51;;;;;;;8.38;4.13;;;22.00;99.90;;;;;;5014125;28;20022;-59
2024/02/13 07:54:19;;;;;;;7.68;4.30;;;22.00;99.90;;;;;;5012764;28;20026;-59
2024/02/13 07:56:45;;;;;;;8.30;4.85;;;22.00;99.90;;;;;;5014008;28;20064;-59
2024/02/13 07:59:11;;;;;;;11.77;4.10;;;22.00;99.90;;;;;;5014026;28;20033;-58
2024/02/13 08:01:37;;;;;;;9.95;3.70;;;22.10;99.90;;;;;;5014168;28;20117;-58
2024/02/13 08:04:03;;;;;;;10.75;4.18;;;22.00;99.90;;;;;;5013873;28;20152;-58
2024/02/13 08:06:29;;;;;;;8.85;3.95;;;22.00;99.90;;;;;;5013925;28;20038;-59
2024/02/13 08:08:55;;;;;;;8.10;4.32;;;22.10;99.90;;;;;;5013889;28;20438;-58
2024/02/13 08:11:21;;;;;;;8.35;3.72;;;22.10;99.90;;;;;;5029070;28;20482;-57
2024/02/13 08:13:48;;;;;;;7.07;3.55;;;22.10;99.90;;;;;;5013816;28;20014;-57
2024/02/13 08:16:14;;;;;;;8.63;3.67;;;22.10;99.90;;;;;;5013801;28;20493;-57
2024/02/13 08:18:43;;;;;;;7.20;3.25;;;22.10;99.90;;;;;;5013906;28;20030;-57
2024/02/13 08:21:08;;;;;;;7.63;3.35;;;22.10;99.90;;;;;;5012671;28;20107;-57
2024/02/13 08:23:34;;;;;;;7.70;3.65;;;22.10;99.90;;;;;;5028831;28;20482;-59
2024/02/13 08:26:00;;;;;;;5.22;3.40;;;22.10;99.90;;;;;;5013414;28;20038;-60
2024/02/13 08:28:26;;;;;;;7.57;3.15;;;22.10;99.90;;;;;;5013600;28;20065;-59
2024/02/13 08:30:53;;;;;;;6.15;2.80;;;22.10;99.90;;;;;;5013598;28;20022;-59
2024/02/13 08:33:19;;;;;;;5.22;2.80;;;22.10;99.90;;;;;;5013509;28;20032;-59
2024/02/13 08:35:46;;;;;;;5.65;3.15;;;22.20;99.90;;;;;;5013346;28;20033;-59
2024/02/13 08:38:12;;;;;;;6.28;2.80;;;22.20;99.90;;;;;;5013352;28;20040;-59
2024/02/13 08:40:38;;;;;;;8.60;3.22;;;22.20;99.90;;;;;;5013574;28;20033;-59
2024/02/13 08:43:04;;;;;;;8.80;3.75;;;22.20;99.90;;;;;;5013217;28;20101;-59
2024/02/13 08:45:30;;;;;;;6.45;3.15;;;22.20;99.90;;;;;;5013144;28;20034;-59
2024/02/13 08:47:56;;;;;;;6.88;3.17;;;22.20;99.90;;;;;;5013121;28;20100;-59
2024/02/13 08:50:21;;;;;;;5.18;2.83;;;22.20;99.90;;;;;;5013017;28;20018;-59
2024/02/13 08:52:48;;;;;;;7.88;3.10;;;22.20;99.90;;;;;;5013235;28;20033;-60
2024/02/13 08:55:14;;;;;;;4.32;2.47;;;22.30;99.90;;;;;;5012953;28;20081;-60
2024/02/13 08:57:40;;;;;;;6.10;2.65;;;22.30;99.90;;;;;;5013451;28;20029;-59
2024/02/13 09:00:10;;;;;;;5.72;2.90;;;22.30;99.90;;;;;;5013036;28;20033;-60
2024/02/13 09:02:36;;;;;;;6.28;2.40;;;22.30;99.90;;;;;;5012982;28;20065;-57
2024/02/13 09:05:04;;;;;;;5.50;2.80;;;22.30;99.90;;;;;;5013007;28;20034;-57
2024/02/13 09:07:31;;;;;;;4.28;2.67;;;22.30;99.90;;;;;;5012949;28;20018;-58
2024/02/13 09:09:56;;;;;;;5.35;2.92;;;22.30;99.90;;;;;;4995198;28;20033;-58
2024/02/13 09:12:23;;;;;;;4.95;3.22;;;22.30;99.90;;;;;;5012835;28;20374;-59
2024/02/13 09:14:49;;;;;;;6.13;2.73;;;22.40;99.90;;;;;;5012790;28;20140;-57
2024/02/13 09:17:15;;;;;;;6.43;2.80;;;22.30;99.90;;;;;;5012935;28;20267;-57
2024/02/13 09:19:43;;;;;;;5.40;2.67;;;22.40;99.90;;;;;;5012939;28;20030;-58
2024/02/13 09:22:09;;;;;;;7.63;3.33;;;22.40;99.90;;;;;;5013035;28;20025;-57
2024/02/13 09:24:36;;;;;;;5.53;3.03;;;22.40;99.90;;;;;;5011427;28;20030;-58
2024/02/13 09:27:03;;;;;;;7.77;3.27;;;22.40;99.90;;;;;;5012737;28;20025;-58
2024/02/13 09:29:29;;;;;;;8.43;3.85;;;22.40;99.90;;;;;;5012615;28;20049;-58
2024/02/13 09:31:55;;;;;;;7.03;3.20;;;22.50;99.90;;;;;;5011203;28;20363;-58
2024/02/13 09:34:20;;;;;;;6.80;3.05;;;22.50;99.90;;;;;;5012591;28;20101;-58
2024/02/13 09:36:47;;;;;;;5.85;3.22;;;22.50;99.90;;;;;;5012470;28;20026;-58
2024/02/13 09:39:14;;;;;;;5.05;3.22;;;22.50;99.90;;;;;;5012725;28;20096;-58
2024/02/13 09:41:40;;;;;;;6.18;3.65;;;22.50;99.90;;;;;;5012682;28;20050;-58
2024/02/13 09:44:09;;;;;;;7.18;3.45;;;22.60;99.90;;;;;;5011133;28;20109;-57
2024/02/13 09:46:38;;;;;;;8.88;4.18;;;22.50;99.90;;;;;;5012345;28;20080;-57
2024/02/13 09:49:04;;;;;;;9.27;4.10;;;22.60;99.90;;;;;;5012463;28;20024;-59
2024/02/13 09:51:33;;;;;;;7.55;3.78;;;22.60;99.90;;;;;;5012323;28;20080;-58
2024/02/13 09:54:06;;;;;;;8.60;3.67;;;22.60;99.90;;;;;;5012288;28;20026;-57
2024/02/13 09:56:33;;;;;;;7.07;4.00;;;22.70;99.90;;;;;;5012364;28;20050;-57
2024/02/13 09:59:00;;;;;;;8.35;4.70;;;22.70;99.90;;;;;;5011149;28;20460;-58
2024/02/13 10:01:26;;;;;;;7.30;5.27;;;22.70;99.90;;;;;;5012178;28;20084;-58
2024/02/13 10:03:52;;;;;;;8.05;3.63;;;22.70;99.90;;;;;;5012112;28;20540;-57
2024/02/13 10:06:18;;;;;;;8.43;4.47;;;22.80;99.90;;;;;;5014407;28;20034;-58
2024/02/13 10:08:49;;;;;;;8.98;4.63;;;22.80;99.90;;;;;;5016399;28;20492;-58
2024/02/13 10:11:16;;;;;;;9.68;4.97;;;22.80;99.90;;;;;;5016397;28;20026;-57
2024/02/13 10:13:42;;;;;;;8.45;5.30;;;22.80;99.90;;;;;;5031288;28;20022;-57
2024/02/13 10:16:23;;;;;;;9.65;5.78;;;22.90;99.90;;;;;;5016004;28;20030;-57
2024/02/13 10:18:51;;;;;;;7.57;4.65;;;22.90;99.90;;;;;;5015851;28;20022;-57
2024/02/13 10:21:17;;;;;;;12.45;5.18;;;22.90;99.90;;;;;;5015993;28;20087;-57
2024/02/13 10:23:44;;;;;;;12.18;5.38;;;23.00;99.90;;;;;;5015993;28;20108;-57
2024/02/13 10:26:13;;;;;;;10.40;4.97;;;23.00;99.90;;;;;;5015767;28;20057;-56
2024/02/13 10:28:44;;;;;;;8.38;4.90;;;23.00;99.90;;;;;;5031122;28;20054;-56
2024/02/13 10:31:09;;;;;;;8.80;4.95;;;23.10;99.90;;;;;;5015696;28;20032;-57
2024/02/13 10:33:41;;;;;;;10.27;5.45;;;23.10;99.90;;;;;;5015516;28;20022;-57
2024/02/13 10:36:08;;;;;;;8.73;4.38;;;23.10;99.90;;;;;;5014369;28;20486;-58
2024/02/13 10:38:36;;;;;;;9.85;4.97;;;23.20;99.90;;;;;;5015693;28;20160;-57
2024/02/13 10:41:09;;;;;;;9.40;5.05;;;23.30;99.90;;;;;;5015604;28;20026;-57
2024/02/13 10:43:38;;;;;;;9.93;5.25;;;23.20;99.90;;;;;;5015348;28;20022;-58
2024/02/13 10:46:06;;;;;;;12.70;5.03;;;23.30;99.90;;;;;;5015415;28;20037;-57
2024/02/13 10:48:57;;;;;;;9.45;5.70;;;23.30;99.90;;;;;;5015390;28;20101;-57
2024/02/13 10:51:25;;;;;;;11.25;5.07;;;23.30;99.90;;;;;;5015403;28;20057;-57
2024/02/13 10:53:51;;;;;;;10.38;4.95;;;23.40;99.90;;;;;;5015215;28;20026;-57
2024/02/13 10:56:20;;;;;;;10.27;5.20;;;23.40;99.90;;;;;;5015318;28;20022;-58
2024/02/13 10:58:46;;;;;;;7.10;5.25;;;23.50;99.90;;;;;;5015517;28;20389;-57
2024/02/13 11:01:15;;;;;;;9.00;4.60;;;23.50;99.90;;;;;;5014892;28;20120;-57
2024/02/13 11:03:42;;;;;;;7.72;4.43;;;23.50;99.90;;;;;;5015073;28;20037;-56
2024/02/13 11:06:10;;;;;;;10.07;4.85;;;23.50;99.90;;;;;;5014896;28;20104;-57
2024/02/13 11:08:37;;;;;;;10.57;4.65;;;23.60;99.90;;;;;;5015048;28;20017;-56
2024/02/13 11:11:13;;;;;;;10.77;4.93;;;23.60;99.90;;;;;;5014955;28;20382;-57
2024/02/13 11:13:39;;;;;;;8.77;5.60;;;23.60;99.90;;;;;;5014859;28;20038;-57
2024/02/13 11:16:05;;;;;;;7.95;4.22;;;23.70;99.90;;;;;;5014800;28;20092;-57
2024/02/13 11:18:34;;;;;;;8.25;5.00;;;23.70;99.90;;;;;;5013839;28;20046;-57
2024/02/13 11:21:01;;;;;;;11.23;5.18;;;23.70;99.90;;;;;;5013505;28;20026;-58
2024/02/13 11:23:29;;;;;;;7.15;4.68;;;23.80;99.90;;;;;;5014745;28;20049;-57
2024/02/13 11:25:59;;;;;;;8.85;5.10;;;23.80;99.90;;;;;;5014523;28;20026;-57
2024/02/13 11:28:33;;;;;;;7.70;4.60;;;23.80;99.90;;;;;;5014564;28;20093;-57
2024/02/13 11:30:58;;;;;;;13.27;5.32;;;23.80;99.90;;;;;;5014761;28;20097;-57
2024/02/13 11:33:24;;;;;;;8.82;4.55;;;23.90;99.90;;;;;;5014650;28;20109;-57
2024/02/13 11:35:54;;;;;;;7.32;4.45;;;23.90;99.90;;;;;;5014584;28;20030;-57
2024/02/13 11:38:24;;;;;;;9.32;4.82;;;24.00;99.90;;;;;;5014822;28;20017;-57
2024/02/13 11:40:54;;;;;;;8.98;4.47;;;24.00;99.90;;;;;;5013382;28;20030;-57
2024/02/13 11:43:27;;;;;;;8.80;4.15;;;24.00;99.90;;;;;;5014632;28;20018;-57
2024/02/13 11:45:56;;;;;;;9.25;4.57;;;24.00;99.90;;;;;;5012970;28;20069;-57
2024/02/13 11:48:27;;;;;;;7.68;4.07;;;24.00;99.90;;;;;;5014389;28;20045;-57
2024/02/13 11:50:57;;;;;;;6.38;3.78;;;24.00;99.90;;;;;;5014252;28;20041;-57
2024/02/13 11:53:23;;;;;;;10.80;4.88;;;24.00;99.90;;;;;;5029487;28;20040;-57
2024/02/13 11:55:51;;;;;;;7.60;3.85;;;24.00;99.90;;;;;;5014389;28;20029;-57
2024/02/13 11:58:20;;;;;;;6.72;4.03;;;24.00;99.90;;;;;;5014196;28;20026;-57
2024/02/13 12:01:03;;;;;;;6.03;3.88;;;24.10;99.90;;;;;;5013995;28;20025;-57
2024/02/13 12:03:34;;;;;;;6.50;3.20;;;24.10;99.90;;;;;;5013984;28;20026;-57
2024/02/13 12:06:05;;;;;;;7.38;3.47;;;24.10;99.90;;;;;;5013795;28;20117;-57
2024/02/13 12:08:32;;;;;;;6.22;3.63;;;24.10;99.90;;;;;;5013952;28;20547;-57
2024/02/13 12:11:00;;;;;;;7.28;3.85;;;24.10;99.90;;;;;;5013962;28;20034;-57
2024/02/13 12:13:27;;;;;;;9.40;3.70;;;24.20;99.90;;;;;;5013819;28;20083;-59
2024/02/13 12:15:57;;;;;;;6.00;3.57;;;24.20;99.90;;;;;;5013779;28;20080;-58
2024/02/13 12:18:23;;;;;;;6.18;3.25;;;24.20;99.90;;;;;;5013906;28;20014;-57
2024/02/13 12:20:52;;;;;;;7.38;3.88;;;24.20;99.90;;;;;;5013907;28;20052;-57
2024/02/13 12:23:18;;;;;;;6.30;3.13;;;24.20;99.90;;;;;;5013738;28;20022;-57
2024/02/13 12:25:49;;;;;;;4.25;3.58;;;24.30;99.90;;;;;;5013640;28;20033;-58
2024/02/13 12:28:17;;;;;;;7.68;3.50;;;24.30;99.90;;;;;;5013236;28;20096;-57
2024/02/13 12:30:47;;;;;;;;;;;24.40;99.90;;;;;;5013940;28;20101;-58
2024/02/13 12:33:20;;;;;;;5.40;2.92;;;24.40;99.90;;;;;;5013671;28;20376;-58
2024/02/13 12:36:07;;;;;;;6.03;2.80;;;24.40;99.90;;;;;;5028607;28;20080;-57
2024/02/13 12:38:36;;;;;;;6.22;2.70;;;24.40;99.90;;;;;;5013556;28;20018;-57
2024/02/13 12:41:04;;;;;;;4.82;2.95;;;24.50;99.90;;;;;;5013237;28;20033;-58
2024/02/13 12:43:31;;;;;;;5.53;3.17;;;24.50;99.90;;;;;;5013263;28;20026;-58
2024/02/13 12:46:06;;;;;;;7.25;3.22;;;24.50;99.90;;;;;;5013283;28;20034;-58
2024/02/13 12:48:36;;;;;;;5.03;2.95;;;24.50;99.90;;;;;;5013342;28;20104;-57
2024/02/13 12:51:03;;;;;;;6.53;3.05;;;24.60;99.90;;;;;;4996485;28;20385;-57